Data for 01/01/2007

Time Sea-Level Adjusted Pressure Absolute Pressure Temperature Relative Humidity Dew Point   
(mb) (inHg) (mb) (inHg) (C) (F) (%) (C) (F)
00:05 1021 30.15 850 25.1 -7.4 18.6 82 -10 13.9
00:10 1021 30.15 850 25.1 -7.4 18.6 81 -10.2 13.7
00:15 1021 30.15 850 25.1 -7.6 18.3 82 -10.1 13.8
00:20 1021 30.15 850 25.1 -7.6 18.2 82 -10.2 13.6
00:25 1021 30.15 850 25.1 -7.7 18.1 82 -10.3 13.5
00:30 1021 30.15 850 25.1 -7.8 18.1 83 -10.2 13.7
00:35 1021 30.15 850 25.1 -7.5 18.4 82 -10.1 13.8
00:40 1021 30.15 850 25.1 -7.3 18.9 80 -10.1 13.8
00:45 1021 30.15 850 25.1 -7.1 19.3 81 -9.7 14.5
00:50 1021 30.15 850 25.1 -6.9 19.5 83 -9.4 15.1
00:55 1021 30.15 850 25.1 -7.1 19.3 83 -9.4 15.1
01:00 1021 30.15 850 25.1 -7.1 19.2 84 -9.3 15.2
01:05 1021 30.15 850 25.1 -7.3 18.9 84 -9.6 14.7
01:10 1021 30.15 850 25.1 -6.9 19.6 86 -8.8 16.2
01:15 1021 30.15 850 25.1 -7 19.4 88 -8.7 16.4
01:20 1021 30.15 850 25.1 -7.4 18.7 88 -9.1 15.5
01:25 1021 30.15 850 25.1 -7.6 18.4 87 -9.3 15.3
01:30 1021 30.15 850 25.1 -7.8 18.1 88 -9.3 15.2
01:35 1021 30.15 850 25.1 -7.9 17.9 88 -9.5 14.9
01:40 1021 30.15 850 25.1 -8 17.7 88 -9.6 14.8
01:45 1021 30.15 850 25.1 -8 17.6 89 -9.5 14.9
01:50 1021 30.15 850 25.1 -7.7 18.1 89 -9.2 15.4
01:55 1021 30.15 850 25.1 -7.7 18.1 88 -9.3 15.3
02:00 1021 30.15 850 25.1 -7.7 18.2 88 -9.4 15.1
02:05 1021 30.15 850 25.1 -7.6 18.4 88 -9.2 15.5
02:10 1021 30.15 850 25.1 -7.3 18.8 87 -9.2 15.5
02:15 1021 30.15 851 25.13 -7.2 19 86 -9.1 15.5
02:20 1021 30.15 851 25.13 -7.1 19.2 85 -9.3 15.3
02:25 1021 30.15 851 25.13 -7.2 19.1 85 -9.3 15.3
02:30 1022 30.18 851 25.13 -7.2 19.1 85 -9.3 15.3
02:35 1022 30.18 851 25.13 -7.3 19 86 -9.2 15.4
02:40 1022 30.18 851 25.13 -7.1 19.2 86 -9.1 15.5
02:45 1022 30.18 851 25.13 -7 19.4 85 -9.1 15.7
02:50 1022 30.18 851 25.13 -6.9 19.5 86 -8.9 15.9
02:55 1022 30.18 851 25.13 -6.8 19.8 85 -8.9 16
03:00 1022 30.18 851 25.13 -7.1 19.2 86 -9 15.8
03:05 1022 30.18 851 25.13 -7.1 19.2 86 -9 15.7
03:10 1022 30.18 851 25.13 -7.3 18.9 87 -9 15.8
03:15 1022 30.18 851 25.13 -7.7 18.1 90 -9.2 15.5
03:20 1022 30.18 851 25.13 -7.7 18.1 87 -9.6 14.8
03:25 1022 30.18 851 25.13 -8 17.6 90 -9.4 15.1
03:30 1022 30.18 851 25.13 -7.6 18.3 88 -9.3 15.3
03:35 1022 30.18 851 25.13 -7.5 18.5 87 -9.4 15.2
03:40 1022 30.18 851 25.13 -7.7 18.1 87 -9.5 14.9
03:45 1022 30.18 851 25.13 -7.9 17.8 89 -9.4 15
03:50 1022 30.18 851 25.13 -7.9 17.9 91 -9 15.7
03:55 1022 30.18 851 25.13 -7.6 18.3 90 -8.9 16
04:00 1022 30.18 852 25.16 -7.6 18.4 90 -9 15.8
04:05 1022 30.18 852 25.16 -7.5 18.4 88 -9.1 15.5
04:10 1022 30.18 852 25.16 -7.6 18.3 88 -9.3 15.3
04:15 1023 30.21 852 25.16 -7.8 17.9 86 -9.8 14.3
04:20 1023 30.21 852 25.16 -8.2 17.2 87 -10 14
04:25 1023 30.21 852 25.16 -8.4 16.8 89 -9.9 14.2
04:30 1023 30.21 852 25.16 -8.3 17.1 88 -9.9 14.2
04:35 1023 30.21 852 25.16 -8.2 17.3 89 -9.7 14.6
04:40 1023 30.21 852 25.16 -7.9 17.8 89 -9.4 15
04:45 1023 30.21 852 25.16 -7.7 18.2 87 -9.4 15.1
04:50 1023 30.21 852 25.16 -7.6 18.3 87 -9.4 15
04:55 1023 30.21 852 25.16 -7.6 18.3 87 -9.4 15
05:00 1023 30.21 852 25.16 -7.6 18.4 87 -9.3 15.2
05:05 1023 30.21 852 25.16 -7.6 18.4 86 -9.5 14.8
05:10 1023 30.21 852 25.16 -7.9 17.8 86 -9.9 14.3
05:15 1023 30.21 852 25.16 -8 17.6 89 -9.5 14.9
05:20 1023 30.21 852 25.16 -7.9 17.8 85 -9.9 14.1
05:25 1023 30.21 852 25.16 -8.4 16.8 86 -10.4 13.3
05:30 1023 30.21 852 25.16 -8.7 16.4 87 -10.4 13.2
05:35 1023 30.21 852 25.16 -7.8 17.9 86 -9.8 14.4
05:40 1023 30.21 852 25.16 -7 19.5 85 -9 15.8
05:45 1023 30.21 852 25.16 -6.3 20.7 85 -8.4 17
05:50 1023 30.21 852 25.16 -6.6 20 85 -8.8 16.2
05:55 1023 30.21 852 25.16 -7.9 17.7 84 -10.2 13.6
06:00 1023 30.21 852 25.16 -8.7 16.3 88 -10.4 13.4
06:05 1023 30.21 852 25.16 -9.1 15.7 88 -10.7 12.7
06:10 1023 30.21 852 25.16 -9.1 15.6 90 -10.5 13.1
06:15 1023 30.21 852 25.16 -8.9 16 89 -10.3 13.4
06:20 1023 30.21 852 25.16 -8.7 16.4 88 -10.3 13.4
06:25 1023 30.21 852 25.16 -8.6 16.5 87 -10.4 13.2
06:30 1023 30.21 852 25.16 -8.3 17 88 -10 14.1
06:35 1023 30.21 852 25.16 -7.5 18.6 87 -9.3 15.2
06:40 1023 30.21 852 25.16 -7.7 18.2 85 -9.8 14.4
06:45 1023 30.21 852 25.16 -8.1 17.4 85 -10.2 13.6
06:50 1023 30.21 852 25.16 -8.2 17.2 88 -9.9 14.2
06:55 1023 30.21 852 25.16 -8.2 17.2 85 -10.2 13.6
07:00 1023 30.21 852 25.16 -8.3 17 87 -10.1 13.7
07:05 1023 30.21 852 25.16 -8 17.5 85 -10.1 13.8
07:10 1023 30.21 852 25.16 -8.3 17.1 83 -10.6 12.9
07:15 1023 30.21 852 25.16 -8.2 17.3 80 -11 12.2
07:20 1023 30.21 852 25.16 -8.5 16.7 83 -10.8 12.5
07:25 1023 30.21 853 25.19 -8.2 17.3 83 -10.5 13
07:30 1023 30.21 852 25.16 -8.5 16.7 84 -10.8 12.6
07:35 1023 30.21 853 25.19 -8.9 16.1 83 -11.2 11.8
07:40 1023 30.21 853 25.19 -8.8 16.1 84 -11.1 12
07:45 1023 30.21 853 25.19 -8.6 16.5 85 -10.7 12.7
07:50 1023 30.21 853 25.19 -8.7 16.4 81 -11.3 11.7
07:55 1024 30.24 853 25.19 -8.7 16.3 84 -11 12.2
08:00 1024 30.24 853 25.19 -7.9 17.7 85 -10.1 13.9
08:05 1023 30.21 853 25.19 -7.4 18.7 86 -9.3 15.2
08:10 1024 30.24 853 25.19 -7.2 19 85 -9.3 15.2
08:15 1024 30.24 853 25.19 -6.4 20.5 85 -8.5 16.7
08:20 1024 30.24 853 25.19 -6.2 20.8 81 -9 15.8
08:25 1024 30.24 853 25.19 -7.3 19 85 -9.4 15.1
08:30 1024 30.24 853 25.19 -7.1 19.2 83 -9.5 15
08:35 1024 30.24 853 25.19 -6.9 19.5 83 -9.3 15.2
08:40 1024 30.24 853 25.19 -7.2 19 82 -9.9 14.3
08:45 1024 30.24 853 25.19 -7.4 18.8 81 -10.1 13.8
08:50 1024 30.24 853 25.19 -7.4 18.7 79 -10.4 13.3
08:55 1024 30.24 853 25.19 -7.6 18.4 80 -10.5 13.1
09:00 1024 30.24 853 25.19 -7.2 19.1 78 -10.4 13.2
09:05 1024 30.24 853 25.19 -7.3 19 78 -10.5 13.1
09:10 1024 30.24 853 25.19 -6.9 19.6 78 -10.1 13.8
09:15 1024 30.24 853 25.19 -6.6 20.1 75 -10.3 13.4
09:20 1024 30.24 853 25.19 -6.2 20.8 74 -10.2 13.7
09:25 1024 30.24 853 25.19 -5.7 21.8 72 -10 14.1
09:30 1024 30.24 853 25.19 -5.7 21.8 73 -9.8 14.3
09:35 1024 30.24 853 25.19 -5.8 21.6 74 -9.7 14.5
09:40 1024 30.24 853 25.19 -5.7 21.8 74 -9.6 14.7
09:45 1024 30.24 853 25.19 -5.2 22.7 72 -9.4 15.1
09:50 1024 30.24 853 25.19 -4.6 23.7 68 -9.6 14.8
09:55 1024 30.24 853 25.19 -4.9 23.1 71 -9.4 15.1
10:00 1024 30.24 853 25.19 -4.9 23.3 70 -9.4 15
10:05 1024 30.24 853 25.19 -3.7 25.4 65 -9.4 15.1
10:10 1024 30.24 853 25.19 -4.1 24.6 68 -9.2 15.5
10:15 1024 30.24 853 25.19 -4 24.7 68 -9.1 15.6
10:20 1024 30.24 854 25.22 -3.9 25 67 -9.2 15.5
10:25 1024 30.24 854 25.22 -3.6 25.5 67 -8.8 16.1
10:30 1025 30.27 854 25.22 -3 26.6 65 -8.7 16.4
10:35 1025 30.27 854 25.22 -3 26.5 66 -8.5 16.7
10:40 1025 30.27 854 25.22 -2.6 27.3 64 -8.4 16.8
10:45 1025 30.27 854 25.22 -3 26.6 67 -8.3 17
10:50 1025 30.27 854 25.22 -3.1 26.4 66 -8.7 16.4
10:55 1025 30.27 854 25.22 -2.9 26.7 65 -8.6 16.5
11:00 1025 30.27 854 25.22 -2.6 27.2 63 -8.7 16.4
11:05 1025 30.27 854 25.22 -2.9 26.8 63 -8.9 16
11:10 1024 30.24 854 25.22 -3.3 26.1 65 -9 15.7
11:15 1024 30.24 854 25.22 -2.9 26.8 64 -8.8 16.1
11:20 1024 30.24 853 25.19 -2.7 27.2 62 -8.9 15.9
11:25 1024 30.24 853 25.19 -2.5 27.5 65 -8.3 17.1
11:30 1024 30.24 853 25.19 -3 26.6 66 -8.4 16.8
11:35 1024 30.24 853 25.19 -3.2 26.2 69 -8.2 17.3
11:40 1024 30.24 853 25.19 -2.9 26.8 67 -8.2 17.2
11:45 1024 30.24 853 25.19 -2.1 28.2 64 -8 17.6
11:50 1024 30.24 853 25.19 -1.3 29.6 61 -8 17.6
11:55 1024 30.24 853 25.19 -0.6 31 59 -7.7 18.1
12:00 1024 30.24 853 25.19 -0.5 31.1 59 -7.6 18.4
12:05 1024 30.24 853 25.19 -0.8 30.5 60 -7.8 18
12:10 1024 30.24 853 25.19 -0.7 30.7 58 -8.1 17.4
12:15 1024 30.24 853 25.19 -0.3 31.4 56 -8.1 17.4
12:20 1024 30.24 853 25.19 -0.2 31.6 56 -8.1 17.4
12:25 1023 30.21 853 25.19 -0.3 31.5 55 -8.4 17
12:30 1023 30.21 853 25.19 -0 31.9 55 -8.1 17.4
12:35 1023 30.21 853 25.19 -0.1 31.9 55 -8 17.5
12:40 1023 30.21 853 25.19 -0.3 31.4 57 -7.9 17.8
12:45 1023 30.21 852 25.16 -0.3 31.5 55 -8.2 17.3
12:50 1023 30.21 852 25.16 0.3 32.6 54 -8 17.6
12:55 1023 30.21 852 25.16 0 32 55 -7.9 17.8
13:00 1023 30.21 852 25.16 0.3 32.5 54 -8 17.7
13:05 1023 30.21 852 25.16 0.6 33.1 55 -7.4 18.6
13:10 1023 30.21 852 25.16 0.3 32.6 53 -8.2 17.2
13:15 1023 30.21 852 25.16 1 33.7 51 -8.1 17.4
13:20 1023 30.21 852 25.16 1.3 34.3 51 -7.8 18
13:25 1023 30.21 852 25.16 1.1 34 52 -7.8 18
13:30 1023 30.21 852 25.16 1.2 34.1 50 -8 17.6
13:35 1023 30.21 852 25.16 1 33.7 53 -7.6 18.3
13:40 1023 30.21 852 25.16 1.3 34.4 50 -8 17.6
13:45 1023 30.21 852 25.16 1.5 34.7 50 -7.7 18.1
13:50 1022 30.18 852 25.16 1.2 34.1 51 -7.9 17.9
13:55 1022 30.18 852 25.16 0.7 33.3 52 -7.9 17.7
14:00 1023 30.21 852 25.16 0.9 33.6 51 -8 17.5
14:05 1023 30.21 852 25.16 1.2 34.2 50 -8.1 17.4
14:10 1023 30.21 852 25.16 1 33.8 51 -7.9 17.8
14:15 1023 30.21 852 25.16 0.7 33.2 52 -8.2 17.3
14:20 1022 30.18 852 25.16 0.7 33.2 52 -8.1 17.5
14:25 1022 30.18 852 25.16 0.7 33.2 51 -8.3 17
14:30 1023 30.21 852 25.16 0.5 33 52 -8.3 17
14:35 1023 30.21 852 25.16 0.6 33 52 -8.2 17.2
14:40 1022 30.18 852 25.16 0.6 33 51 -8.5 16.7
14:45 1022 30.18 852 25.16 0.8 33.4 51 -8.4 16.9
14:50 1022 30.18 852 25.16 0.8 33.5 51 -8.2 17.2
14:55 1022 30.18 852 25.16 0.5 32.9 51 -8.6 16.5
15:00 1022 30.18 851 25.13 0.3 32.5 52 -8.4 16.8
15:05 1022 30.18 851 25.13 -0 31.9 54 -8.3 17.1
15:10 1022 30.18 851 25.13 -0 31.9 53 -8.4 16.8
15:15 1022 30.18 851 25.13 0 32 53 -8.4 16.9
15:20 1022 30.18 851 25.13 -0.2 31.6 54 -8.5 16.8
15:25 1022 30.18 851 25.13 -0.9 30.4 57 -8.3 17
15:30 1022 30.18 851 25.13 -0.8 30.6 56 -8.5 16.7
15:35 1022 30.18 851 25.13 -1.1 30 59 -8.1 17.4
15:40 1022 30.18 851 25.13 -0.7 30.8 57 -8.2 17.3
15:45 1022 30.18 851 25.13 -0 31.9 54 -8.3 17.1
15:50 1022 30.18 851 25.13 0.8 33.4 52 -7.9 17.7
15:55 1022 30.18 851 25.13 0.6 33.1 55 -7.5 18.4
16:00 1022 30.18 851 25.13 -0 31.9 57 -7.6 18.3
16:05 1022 30.18 851 25.13 -0.3 31.4 57 -7.8 18
16:10 1022 30.18 851 25.13 -0.9 30.3 60 -7.7 18.2
16:15 1022 30.18 851 25.13 -1.1 30 61 -7.7 18.2
16:20 1022 30.18 851 25.13 -1.7 28.9 65 -7.4 18.7
16:25 1022 30.18 851 25.13 -2.6 27.3 70 -7.4 18.8
16:30 1022 30.18 851 25.13 -3.1 26.4 71 -7.6 18.3
16:35 1022 30.18 851 25.13 -3.3 26 72 -7.6 18.3
16:40 1022 30.18 852 25.16 -3.3 26 72 -7.7 18.2
16:45 1022 30.18 852 25.16 -3.4 25.9 72 -7.8 18
16:50 1022 30.18 852 25.16 -3.2 26.2 71 -7.7 18.1
16:55 1022 30.18 851 25.13 -3.1 26.4 71 -7.5 18.4
17:00 1022 30.18 852 25.16 -2.9 26.8 70 -7.7 18.2
17:05 1022 30.18 851 25.13 -3.5 25.6 75 -7.4 18.8
17:10 1022 30.18 851 25.13 -4 24.8 78 -7.3 18.8
17:15 1022 30.18 851 25.13 -4.1 24.6 78 -7.4 18.6
17:20 1022 30.18 851 25.13 -4.6 23.7 79 -7.8 18
17:25 1022 30.18 851 25.13 -5.2 22.7 80 -8.1 17.4
17:30 1022 30.18 851 25.13 -4.9 23.2 80 -7.9 17.7
17:35 1022 30.18 851 25.13 -4.5 24 79 -7.6 18.2
17:40 1022 30.18 851 25.13 -4.1 24.6 77 -7.6 18.2
17:45 1022 30.18 851 25.13 -3.9 24.9 75 -7.7 18.2
17:50 1022 30.18 851 25.13 -4.5 23.9 77 -7.9 17.8
17:55 1022 30.18 851 25.13 -5.3 22.5 79 -8.4 16.9
18:00 1022 30.18 851 25.13 -5.2 22.6 77 -8.6 16.5
18:05 1022 30.18 851 25.13 -4.8 23.4 76 -8.5 16.8
18:10 1022 30.18 851 25.13 -4.7 23.5 75 -8.4 16.8
18:15 1022 30.18 851 25.13 -4.6 23.6 75 -8.3 17
18:20 1022 30.18 851 25.13 -4.3 24.3 74 -8.2 17.2
18:25 1022 30.18 851 25.13 -4.1 24.6 74 -8.1 17.4
18:30 1022 30.18 851 25.13 -3.9 24.9 73 -8.1 17.4
18:35 1022 30.18 851 25.13 -3.8 25.2 73 -8 17.6
18:40 1022 30.18 851 25.13 -4.1 24.6 77 -7.6 18.3
18:45 1022 30.18 851 25.13 -4.6 23.6 79 -7.8 17.9
18:50 1022 30.18 851 25.13 -4.9 23.2 81 -7.7 18.1
18:55 1022 30.18 851 25.13 -4.8 23.3 79 -7.9 17.7
19:00 1022 30.18 851 25.13 -4.9 23.1 79 -8 17.6
19:05 1022 30.18 851 25.13 -5 23.1 79 -8.1 17.5
19:10 1022 30.18 851 25.13 -4.9 23.2 79 -8 17.6
19:15 1021 30.15 851 25.13 -5.3 22.5 79 -8.3 17.1
19:20 1021 30.15 850 25.1 -5.7 21.8 83 -8.1 17.4
19:25 1021 30.15 850 25.1 -5.5 22.2 82 -8.1 17.4
19:30 1021 30.15 850 25.1 -5.3 22.4 80 -8.2 17.2
19:35 1021 30.15 850 25.1 -5.3 22.4 77 -8.7 16.3
19:40 1021 30.15 850 25.1 -4.9 23.2 76 -8.5 16.7
19:45 1021 30.15 850 25.1 -4.8 23.3 76 -8.4 16.9
19:50 1021 30.15 850 25.1 -4.5 24 75 -8.3 17.1
19:55 1021 30.15 850 25.1 -4.5 24 75 -8.2 17.2
20:00 1021 30.15 850 25.1 -4.5 23.9 74 -8.4 16.9
20:05 1021 30.15 850 25.1 -4.1 24.7 74 -8.1 17.4
20:10 1021 30.15 850 25.1 -4.1 24.7 73 -8.2 17.2
20:15 1021 30.15 850 25.1 -4 24.8 72 -8.4 17
20:20 1021 30.15 850 25.1 -3.8 25.2 71 -8.4 16.9
20:25 1021 30.15 850 25.1 -3.6 25.5 69 -8.5 16.7
20:30 1021 30.15 850 25.1 -3.2 26.3 66 -8.7 16.3
20:35 1020 30.12 850 25.1 -2.6 27.3 63 -8.8 16.2
20:40 1021 30.15 850 25.1 -2.2 28.1 61 -8.7 16.4
20:45 1021 30.15 850 25.1 -1.9 28.6 59 -8.9 16
20:50 1021 30.15 850 25.1 -1.6 29.1 62 -8 17.6
20:55 1021 30.15 850 25.1 -1.7 28.9 66 -7.3 18.8
21:00 1021 30.15 850 25.1 -1.7 29 63 -7.8 18
21:05 1021 30.15 850 25.1 -1.4 29.5 67 -6.8 19.8
21:10 1021 30.15 850 25.1 -1.6 29.2 70 -6.4 20.5
21:15 1021 30.15 850 25.1 -1.7 28.9 70 -6.5 20.3
21:20 1021 30.15 850 25.1 -1.7 29 64 -7.6 18.4
21:25 1021 30.15 850 25.1 -1.5 29.3 67 -7 19.5
21:30 1021 30.15 850 25.1 -1.7 29 67 -7.1 19.2
21:35 1021 30.15 850 25.1 -1.6 29.1 68 -6.9 19.6
21:40 1021 30.15 851 25.13 -1.4 29.5 66 -7 19.4
21:45 1022 30.18 851 25.13 -1.2 29.8 69 -6.1 21
21:50 1022 30.18 851 25.13 -1.3 29.6 69 -6.3 20.7
21:55 1022 30.18 851 25.13 -1.8 28.7 73 -6.1 21
22:00 1022 30.18 851 25.13 -3 26.5 76 -6.6 20.1
22:05 1022 30.18 851 25.13 -3.6 25.6 78 -6.9 19.6
22:10 1022 30.18 851 25.13 -3.2 26.3 75 -6.9 19.5
22:15 1022 30.18 851 25.13 -2.9 26.8 76 -6.5 20.2
22:20 1022 30.18 851 25.13 -2.6 27.3 76 -6.4 20.5
22:25 1021 30.15 851 25.13 -2.4 27.6 74 -6.4 20.5
22:30 1022 30.18 851 25.13 -2.9 26.9 78 -6.2 20.8
22:35 1022 30.18 851 25.13 -3.5 25.7 80 -6.5 20.2
22:40 1022 30.18 851 25.13 -3.4 25.9 81 -6.2 20.9
22:45 1022 30.18 851 25.13 -2.6 27.3 77 -6 21.1
22:50 1022 30.18 851 25.13 -2.2 28 76 -6 21.2
22:55 1022 30.18 851 25.13 -2.2 28.1 75 -6 21.2
23:00 1021 30.15 851 25.13 -2 28.3 76 -5.7 21.8
23:05 1021 30.15 851 25.13 -1.8 28.7 74 -5.9 21.4
23:10 1021 30.15 851 25.13 -2 28.4 77 -5.6 21.9
23:15 1021 30.15 851 25.13 -2.1 28.3 76 -5.7 21.7
23:20 1021 30.15 850 25.1 -2.3 27.8 79 -5.5 22.1
23:25 1021 30.15 850 25.1 -2.4 27.7 79 -5.6 22
23:30 1021 30.15 850 25.1 -2.5 27.5 80 -5.5 22
23:35 1021 30.15 850 25.1 -2.2 28.1 77 -5.7 21.8
23:40 1021 30.15 850 25.1 -1.4 29.6 72 -5.7 21.7
23:45 1021 30.15 850 25.1 -1 30.2 67 -6.5 20.4
23:50 1021 30.15 850 25.1 -0.8 30.5 68 -6 21.2
23:55 1021 30.15 850 25.1 -1.1 30.1 72 -5.5 22.2
24:00 1021 30.15 850 25.1 -1.4 29.5 73 -5.7 21.7